Archival Weather

Prince Abdulmajeed Bin Abdula

Prince Abdulmajeed Bin Abdula, Saudi Arabia (OEAO)

Report from: Monday, May 23, 2022 10:00 AM UTC
Current time: Tuesday, August 16, 2022 8:01 AM UTC

Current weather
Weather history
Weather forecast

Temperature32.0°C (89.6°F)
Heat index29.8°C (85.6°F)
Dew point-2.0°C (28.4°F)
Winds 4 kts (2.1 m/s, 4.6 mph) West-Northwest (300°)
Clouds Sky clear
Altimeter29.85 in.Hg (1011 mB)
Relative humidity11 %
Density altitude2,103 ft. (641 m)
Remarks Ceiling and visibility OK
No significant changes expected in the next two hours
Flight conditions Visual Meteorological Conditions
Raw dataOEAO 231000Z 30004KT CAVOK 32/M02 Q1011 NOSIG
An error has occurred. This application may no longer respond until reloaded. Reload 🗙